createdAt,value
2019-03-24T00:04:43.140Z,3.00
2019-03-24T00:09:50.032Z,4.63
2019-03-24T00:14:56.979Z,1.97
2019-03-24T00:20:03.888Z,2.20
2019-03-24T00:25:12.676Z,3.30
2019-03-24T00:30:23.228Z,2.43
2019-03-24T00:35:30.678Z,2.13
2019-03-24T00:40:37.609Z,2.43
2019-03-24T00:45:44.955Z,1.93
2019-03-24T00:50:55.344Z,2.70
2019-03-24T00:56:04.489Z,2.40
2019-03-24T01:01:11.602Z,2.90
2019-03-24T01:06:19.658Z,2.40
2019-03-24T01:11:28.023Z,2.43
2019-03-24T01:16:37.492Z,2.53
2019-03-24T01:21:44.795Z,2.60
2019-03-24T01:26:53.037Z,2.70
2019-03-24T01:32:00.196Z,2.77
2019-03-24T01:37:07.420Z,2.53
2019-03-24T01:42:14.669Z,3.20
2019-03-24T01:47:22.324Z,2.30
2019-03-24T01:52:29.408Z,2.70
2019-03-24T01:57:37.601Z,3.23
2019-03-24T02:02:47.503Z,3.53
2019-03-24T02:07:54.910Z,2.67
2019-03-24T02:13:03.491Z,2.97
2019-03-24T02:18:09.997Z,2.57
2019-03-24T02:23:16.380Z,2.80
2019-03-24T02:28:24.300Z,2.20
2019-03-24T02:33:34.766Z,1.63
2019-03-24T02:38:42.084Z,1.60
2019-03-24T02:43:50.234Z,3.13
2019-03-24T02:48:58.870Z,1.87
2019-03-24T02:54:06.198Z,2.00
2019-03-24T02:59:14.366Z,2.10
2019-03-24T03:04:22.334Z,1.93
2019-03-24T03:09:29.223Z,2.63
2019-03-24T03:14:37.911Z,1.63
2019-03-24T03:19:45.727Z,1.60
2019-03-24T03:24:54.149Z,1.90
2019-03-24T03:30:01.041Z,1.80
2019-03-24T03:35:10.838Z,2.97
2019-03-24T03:40:18.939Z,1.40
2019-03-24T03:45:33.977Z,1.27
2019-03-24T03:50:41.358Z,2.73
2019-03-24T03:55:50.489Z,1.43
2019-03-24T04:00:59.011Z,1.20
2019-03-24T04:06:07.170Z,2.13
2019-03-24T04:11:13.660Z,1.37
2019-03-24T04:16:20.525Z,1.23
2019-03-24T04:21:28.649Z,1.17
2019-03-24T04:26:35.743Z,1.03
2019-03-24T04:31:43.125Z,1.30
2019-03-24T04:36:51.806Z,0.87
2019-03-24T04:41:58.414Z,1.30
2019-03-24T04:47:16.161Z,2.07
2019-03-24T04:52:15.757Z,1.23
2019-03-24T04:57:27.565Z,1.40
2019-03-24T05:02:34.366Z,1.50
2019-03-24T05:07:42.357Z,1.93
2019-03-24T05:12:48.669Z,1.40
2019-03-24T05:17:58.543Z,2.13
2019-03-24T05:23:05.116Z,1.37
2019-03-24T05:28:12.469Z,0.90
2019-03-24T05:33:20.836Z,1.20
2019-03-24T05:38:28.714Z,0.77
2019-03-24T05:43:34.498Z,1.40
2019-03-24T05:48:39.712Z,1.10
2019-03-24T05:53:45.268Z,2.20
2019-03-24T05:58:50.934Z,2.03
2019-03-24T06:03:57.891Z,1.27
2019-03-24T06:09:07.848Z,1.80
2019-03-24T06:14:14.971Z,2.00
2019-03-24T06:19:55.910Z,1.67
2019-03-24T06:25:04.916Z,3.23
2019-03-24T06:30:13.453Z,1.40
2019-03-24T06:35:26.604Z,1.60
2019-03-24T06:46:36.846Z,2.27
2019-03-24T06:51:42.128Z,2.33
2019-03-24T07:02:52.709Z,2.67
2019-03-24T07:07:59.885Z,3.57
2019-03-24T07:13:06.014Z,2.20
2019-03-24T07:18:31.319Z,2.13
2019-03-24T07:23:40.421Z,2.90
2019-03-24T07:28:45.409Z,2.97
2019-03-24T07:33:59.331Z,3.10
2019-03-24T07:39:49.588Z,2.87
2019-03-24T07:44:56.447Z,2.90
2019-03-24T07:50:16.647Z,3.30
2019-03-24T07:55:32.445Z,2.80
2019-03-24T08:00:40.756Z,4.00
2019-03-24T08:05:55.780Z,3.17
2019-03-24T08:11:11.764Z,3.67
2019-03-24T08:16:21.480Z,3.03
2019-03-24T08:21:28.817Z,3.73
2019-03-24T08:26:36.807Z,3.60
2019-03-24T08:31:46.404Z,4.20
2019-03-24T08:36:53.068Z,4.20
2019-03-24T08:42:01.654Z,5.00
2019-03-24T08:47:09.676Z,4.77
2019-03-24T08:52:16.113Z,4.83
2019-03-24T08:57:32.331Z,5.60
2019-03-24T09:02:38.982Z,4.50
2019-03-24T09:07:47.326Z,5.27
2019-03-24T09:12:56.311Z,4.93
2019-03-24T09:18:05.599Z,4.70
2019-03-24T09:23:14.212Z,4.30
2019-03-24T09:28:22.575Z,5.13
2019-03-24T09:33:32.082Z,4.70
2019-03-24T09:38:39.805Z,5.30
2019-03-24T09:43:46.609Z,4.50
2019-03-24T09:49:03.085Z,5.50
2019-03-24T09:54:07.469Z,4.63
2019-03-24T09:59:16.206Z,4.30
2019-03-24T10:04:24.183Z,4.20
2019-03-24T10:09:34.718Z,4.00
2019-03-24T10:14:41.137Z,3.93
2019-03-24T10:19:50.615Z,4.07
2019-03-24T10:25:00.329Z,4.30
2019-03-24T10:30:08.465Z,5.30
2019-03-24T10:35:16.923Z,4.70
2019-03-24T10:40:28.806Z,3.50
2019-03-24T10:45:33.881Z,3.27
2019-03-24T10:50:42.536Z,3.87
2019-03-24T10:55:49.531Z,3.97
2019-03-24T11:00:58.104Z,4.20
2019-03-24T11:06:04.336Z,3.70
2019-03-24T11:11:29.972Z,3.87
2019-03-24T11:16:38.188Z,4.00
2019-03-24T11:21:47.244Z,3.60
2019-03-24T11:26:53.514Z,3.50
2019-03-24T11:32:03.104Z,3.37
2019-03-24T11:37:09.259Z,3.43
2019-03-24T11:42:15.334Z,4.03
2019-03-24T11:47:26.931Z,3.83
2019-03-24T11:52:31.912Z,3.83
2019-03-24T11:57:39.375Z,3.83
2019-03-24T12:02:45.151Z,3.57
2019-03-24T12:07:54.665Z,2.73
2019-03-24T12:13:04.561Z,2.17
2019-03-24T12:18:13.329Z,2.00
2019-03-24T12:23:21.453Z,2.23
2019-03-24T12:28:28.475Z,2.27
2019-03-24T12:33:42.996Z,1.73
2019-03-24T12:38:50.179Z,1.97
2019-03-24T12:43:56.708Z,2.30
2019-03-24T12:49:08.047Z,2.27
2019-03-24T12:54:17.119Z,1.50
2019-03-24T12:59:25.173Z,1.20
2019-03-24T13:04:33.615Z,1.57
2019-03-24T13:09:40.575Z,1.60
2019-03-24T13:14:49.557Z,1.60
2019-03-24T13:19:59.554Z,1.70
2019-03-24T13:25:07.191Z,1.43
2019-03-24T13:30:18.220Z,1.30
2019-03-24T13:35:24.008Z,1.17
2019-03-24T13:40:31.211Z,1.83
2019-03-24T13:45:40.803Z,3.53
2019-03-24T13:50:48.205Z,1.30
2019-03-24T13:55:56.152Z,1.37
2019-03-24T14:01:06.074Z,1.20
2019-03-24T14:06:14.029Z,0.93
2019-03-24T14:11:20.037Z,1.10
2019-03-24T14:16:27.184Z,0.90
2019-03-24T14:21:34.221Z,0.90
2019-03-24T14:26:41.632Z,1.07
2019-03-24T14:31:49.411Z,1.30
2019-03-24T14:36:58.129Z,1.30
2019-03-24T14:42:08.217Z,1.10
2019-03-24T14:47:20.040Z,0.97
2019-03-24T14:52:27.577Z,1.10
2019-03-24T14:57:33.122Z,1.53
2019-03-24T15:02:41.064Z,1.77
2019-03-24T15:07:47.193Z,1.87
2019-03-24T15:12:55.054Z,2.10
2019-03-24T15:18:02.277Z,1.50
2019-03-24T15:23:09.038Z,2.17
2019-03-24T15:28:15.937Z,1.80
2019-03-24T15:33:22.849Z,1.87
2019-03-24T15:38:30.998Z,2.57
2019-03-24T15:43:41.098Z,1.47
2019-03-24T15:48:50.182Z,1.53
2019-03-24T15:54:04.240Z,2.00
2019-03-24T15:59:13.754Z,1.70
2019-03-24T16:04:22.190Z,1.43
2019-03-24T16:09:28.899Z,1.90
2019-03-24T16:14:36.542Z,1.27
2019-03-24T16:19:44.484Z,1.47
2019-03-24T16:24:56.086Z,0.80
2019-03-24T16:30:07.022Z,1.10
2019-03-24T16:35:14.048Z,1.20
2019-03-24T16:40:22.492Z,1.33
2019-03-24T16:45:29.024Z,1.47
2019-03-24T16:50:35.590Z,1.13
2019-03-24T16:55:42.821Z,1.00
2019-03-24T17:00:49.103Z,0.80
2019-03-24T17:05:55.947Z,0.70
2019-03-24T17:11:03.534Z,0.80
2019-03-24T17:16:10.995Z,1.27
2019-03-24T17:21:17.750Z,1.10
2019-03-24T17:26:25.886Z,0.83
2019-03-24T17:31:31.858Z,1.10
2019-03-24T17:36:39.999Z,1.20
2019-03-24T17:41:48.172Z,1.43
2019-03-24T17:46:54.690Z,1.30
2019-03-24T17:52:02.270Z,1.07
2019-03-24T17:57:10.409Z,1.00
2019-03-24T18:02:19.133Z,1.10
2019-03-24T18:07:26.657Z,1.20
2019-03-24T18:12:33.247Z,1.13
2019-03-24T18:17:40.239Z,1.27
2019-03-24T18:22:48.696Z,1.20
2019-03-24T18:27:57.051Z,0.87
2019-03-24T18:33:10.929Z,1.30
2019-03-24T18:38:18.609Z,1.30
2019-03-24T18:43:27.660Z,1.93
2019-03-24T18:48:34.631Z,1.40
2019-03-24T18:53:41.382Z,1.33
2019-03-24T18:59:12.546Z,0.90
2019-03-24T19:04:18.540Z,1.60
2019-03-24T19:09:25.724Z,1.50
2019-03-24T19:14:32.639Z,1.43
2019-03-24T19:19:44.987Z,1.40
2019-03-24T19:25:21.008Z,1.93
2019-03-24T19:30:40.660Z,2.90
2019-03-24T19:36:30.904Z,2.07
2019-03-24T19:41:38.171Z,1.83
2019-03-24T19:46:47.268Z,2.27
2019-03-24T19:51:54.277Z,1.97
2019-03-24T19:57:02.025Z,1.60
2019-03-24T20:02:19.250Z,1.20
2019-03-24T20:07:26.176Z,1.80
2019-03-24T20:12:52.758Z,1.37
2019-03-24T20:17:58.986Z,1.83
2019-03-24T20:23:05.729Z,1.47
2019-03-24T20:28:12.789Z,1.50
2019-03-24T20:33:22.633Z,2.10
2019-03-24T20:38:30.063Z,1.40
2019-03-24T20:43:41.793Z,1.83
2019-03-24T20:49:21.762Z,1.57
2019-03-24T20:54:30.187Z,1.73
2019-03-24T20:59:37.988Z,1.63
2019-03-24T21:04:46.812Z,1.73
2019-03-24T21:09:54.445Z,1.97
2019-03-24T21:15:02.439Z,1.40
2019-03-24T21:20:09.988Z,1.80
2019-03-24T21:25:18.466Z,1.77
2019-03-24T21:30:41.804Z,2.10
2019-03-24T21:35:48.456Z,2.13
2019-03-24T21:40:54.757Z,2.30
2019-03-24T21:46:03.737Z,1.77
2019-03-24T21:51:11.869Z,2.00
2019-03-24T21:56:20.216Z,1.97
2019-03-24T22:01:27.283Z,1.97
2019-03-24T22:06:34.855Z,2.07
2019-03-24T22:11:41.902Z,1.30
2019-03-24T22:16:49.317Z,2.13
2019-03-24T22:21:56.826Z,1.60
2019-03-24T22:27:03.946Z,1.90
2019-03-24T22:32:10.043Z,1.17
2019-03-24T22:37:19.376Z,1.90
2019-03-24T22:42:25.858Z,1.73
2019-03-24T22:47:49.827Z,1.70
2019-03-24T22:52:58.203Z,1.80
2019-03-24T22:58:05.387Z,1.57
2019-03-24T23:03:12.407Z,1.53
2019-03-24T23:08:19.218Z,1.60
2019-03-24T23:13:24.882Z,1.60
2019-03-24T23:18:33.057Z,1.57
2019-03-24T23:23:43.523Z,1.57
2019-03-24T23:28:51.146Z,1.50
2019-03-24T23:34:00.018Z,1.70
2019-03-24T23:39:08.320Z,1.40
2019-03-24T23:44:16.353Z,1.93
2019-03-24T23:49:24.356Z,1.93
2019-03-24T23:54:30.776Z,1.87
2019-03-24T23:59:38.281Z,2.10
